sensor_id;sensor_type;location;lat;lon;timestamp;P1;durP1;ratioP1;P2;durP2;ratioP2
12469;SDS011;36499;46.484;13.832;2023-02-22T00:00:26;16.23;;;10.10;;
12469;SDS011;36499;46.484;13.832;2023-02-22T00:03:08;15.93;;;9.37;;
12469;SDS011;36499;46.484;13.832;2023-02-22T00:05:39;16.90;;;9.10;;
12469;SDS011;36499;46.484;13.832;2023-02-22T00:08:11;15.50;;;10.20;;
12469;SDS011;36499;46.484;13.832;2023-02-22T00:10:39;15.50;;;10.00;;
12469;SDS011;36499;46.484;13.832;2023-02-22T00:13:07;18.30;;;10.37;;
12469;SDS011;36499;46.484;13.832;2023-02-22T00:15:37;18.53;;;9.97;;
12469;SDS011;36499;46.484;13.832;2023-02-22T00:18:05;20.27;;;10.60;;
12469;SDS011;36499;46.484;13.832;2023-02-22T00:20:37;17.73;;;10.73;;
12469;SDS011;36499;46.484;13.832;2023-02-22T00:23:05;20.47;;;12.20;;
12469;SDS011;36499;46.484;13.832;2023-02-22T00:25:35;18.30;;;10.13;;
12469;SDS011;36499;46.484;13.832;2023-02-22T00:28:02;19.77;;;10.27;;
12469;SDS011;36499;46.484;13.832;2023-02-22T00:30:30;18.80;;;10.57;;
12469;SDS011;36499;46.484;13.832;2023-02-22T00:32:59;17.47;;;10.50;;
12469;SDS011;36499;46.484;13.832;2023-02-22T00:35:28;18.00;;;10.93;;
12469;SDS011;36499;46.484;13.832;2023-02-22T00:37:57;16.23;;;9.80;;
12469;SDS011;36499;46.484;13.832;2023-02-22T00:40:27;17.23;;;10.20;;
12469;SDS011;36499;46.484;13.832;2023-02-22T00:42:57;14.97;;;9.63;;
12469;SDS011;36499;46.484;13.832;2023-02-22T00:45:26;17.17;;;9.43;;
12469;SDS011;36499;46.484;13.832;2023-02-22T00:47:55;14.67;;;9.13;;
12469;SDS011;36499;46.484;13.832;2023-02-22T00:50:24;16.77;;;9.50;;
12469;SDS011;36499;46.484;13.832;2023-02-22T00:52:56;16.60;;;9.03;;
12469;SDS011;36499;46.484;13.832;2023-02-22T00:55:25;14.60;;;8.80;;
12469;SDS011;36499;46.484;13.832;2023-02-22T00:57:55;15.20;;;8.87;;
12469;SDS011;36499;46.484;13.832;2023-02-22T01:00:24;17.00;;;9.23;;
12469;SDS011;36499;46.484;13.832;2023-02-22T01:02:54;15.90;;;9.50;;
12469;SDS011;36499;46.484;13.832;2023-02-22T01:05:22;15.87;;;8.80;;
12469;SDS011;36499;46.484;13.832;2023-02-22T01:07:54;15.93;;;9.40;;
12469;SDS011;36499;46.484;13.832;2023-02-22T01:10:25;18.43;;;10.07;;
12469;SDS011;36499;46.484;13.832;2023-02-22T01:12:55;13.70;;;9.13;;
12469;SDS011;36499;46.484;13.832;2023-02-22T01:15:24;17.83;;;9.33;;
12469;SDS011;36499;46.484;13.832;2023-02-22T01:17:55;18.07;;;10.37;;
12469;SDS011;36499;46.484;13.832;2023-02-22T01:20:23;16.80;;;9.40;;
12469;SDS011;36499;46.484;13.832;2023-02-22T01:22:55;17.57;;;9.73;;
12469;SDS011;36499;46.484;13.832;2023-02-22T01:25:25;15.47;;;9.00;;
12469;SDS011;36499;46.484;13.832;2023-02-22T01:27:56;15.73;;;9.67;;
12469;SDS011;36499;46.484;13.832;2023-02-22T01:30:26;17.13;;;9.47;;
12469;SDS011;36499;46.484;13.832;2023-02-22T01:32:58;17.03;;;9.03;;
12469;SDS011;36499;46.484;13.832;2023-02-22T01:35:27;15.03;;;8.90;;
12469;SDS011;36499;46.484;13.832;2023-02-22T01:37:58;17.63;;;8.80;;
12469;SDS011;36499;46.484;13.832;2023-02-22T01:40:26;14.60;;;8.47;;
12469;SDS011;36499;46.484;13.832;2023-02-22T01:42:56;16.00;;;8.63;;
12469;SDS011;36499;46.484;13.832;2023-02-22T01:48:26;13.50;;;7.93;;
12469;SDS011;36499;46.484;13.832;2023-02-22T01:51:05;13.10;;;7.80;;
12469;SDS011;36499;46.484;13.832;2023-02-22T01:53:42;14.10;;;7.97;;
12469;SDS011;36499;46.484;13.832;2023-02-22T01:56:15;15.77;;;7.73;;
12469;SDS011;36499;46.484;13.832;2023-02-22T01:58:46;12.93;;;7.73;;
12469;SDS011;36499;46.484;13.832;2023-02-22T02:01:18;14.07;;;8.33;;
12469;SDS011;36499;46.484;13.832;2023-02-22T02:03:48;14.67;;;8.00;;
12469;SDS011;36499;46.484;13.832;2023-02-22T02:06:22;12.37;;;7.47;;
12469;SDS011;36499;46.484;13.832;2023-02-22T02:08:53;12.87;;;6.93;;
12469;SDS011;36499;46.484;13.832;2023-02-22T02:11:27;13.73;;;7.97;;
12469;SDS011;36499;46.484;13.832;2023-02-22T02:13:56;15.20;;;7.87;;
12469;SDS011;36499;46.484;13.832;2023-02-22T02:16:24;14.83;;;8.60;;
12469;SDS011;36499;46.484;13.832;2023-02-22T02:19:00;14.53;;;8.40;;
12469;SDS011;36499;46.484;13.832;2023-02-22T02:21:38;22.57;;;10.97;;
12469;SDS011;36499;46.484;13.832;2023-02-22T02:25:13;21.17;;;10.00;;
12469;SDS011;36499;46.484;13.832;2023-02-22T02:31:50;23.90;;;10.83;;
12469;SDS011;36499;46.484;13.832;2023-02-22T02:34:53;21.47;;;10.10;;
12469;SDS011;36499;46.484;13.832;2023-02-22T02:37:31;23.57;;;9.97;;
12469;SDS011;36499;46.484;13.832;2023-02-22T02:40:09;12.93;;;7.07;;
12469;SDS011;36499;46.484;13.832;2023-02-22T02:42:48;14.70;;;7.67;;
12469;SDS011;36499;46.484;13.832;2023-02-22T02:45:26;15.40;;;8.40;;
12469;SDS011;36499;46.484;13.832;2023-02-22T02:48:02;16.27;;;8.33;;
12469;SDS011;36499;46.484;13.832;2023-02-22T02:50:35;17.93;;;9.77;;
12469;SDS011;36499;46.484;13.832;2023-02-22T02:53:07;20.03;;;9.00;;
12469;SDS011;36499;46.484;13.832;2023-02-22T02:55:36;16.47;;;9.03;;
12469;SDS011;36499;46.484;13.832;2023-02-22T02:58:04;12.50;;;7.13;;
12469;SDS011;36499;46.484;13.832;2023-02-22T03:00:33;14.37;;;8.60;;
12469;SDS011;36499;46.484;13.832;2023-02-22T03:03:08;13.33;;;7.97;;
12469;SDS011;36499;46.484;13.832;2023-02-22T03:06:10;12.50;;;7.43;;
12469;SDS011;36499;46.484;13.832;2023-02-22T03:09:22;18.03;;;8.73;;
12469;SDS011;36499;46.484;13.832;2023-02-22T03:12:06;18.60;;;8.40;;
12469;SDS011;36499;46.484;13.832;2023-02-22T03:14:53;13.00;;;7.87;;
12469;SDS011;36499;46.484;13.832;2023-02-22T03:17:36;12.27;;;7.30;;
12469;SDS011;36499;46.484;13.832;2023-02-22T03:20:15;13.77;;;7.13;;
12469;SDS011;36499;46.484;13.832;2023-02-22T03:22:56;14.37;;;7.50;;
12469;SDS011;36499;46.484;13.832;2023-02-22T03:25:32;12.33;;;6.63;;
12469;SDS011;36499;46.484;13.832;2023-02-22T03:28:06;11.57;;;6.80;;
12469;SDS011;36499;46.484;13.832;2023-02-22T03:30:41;13.90;;;7.87;;
12469;SDS011;36499;46.484;13.832;2023-02-22T03:33:14;12.00;;;6.43;;
12469;SDS011;36499;46.484;13.832;2023-02-22T03:35:50;11.73;;;6.10;;
12469;SDS011;36499;46.484;13.832;2023-02-22T03:38:24;12.60;;;6.80;;
12469;SDS011;36499;46.484;13.832;2023-02-22T03:40:55;12.83;;;7.20;;
12469;SDS011;36499;46.484;13.832;2023-02-22T03:43:28;15.93;;;7.63;;
12469;SDS011;36499;46.484;13.832;2023-02-22T03:46:01;13.43;;;7.77;;
12469;SDS011;36499;46.484;13.832;2023-02-22T03:48:34;10.30;;;6.70;;
12469;SDS011;36499;46.484;13.832;2023-02-22T03:51:09;10.87;;;6.77;;
12469;SDS011;36499;46.484;13.832;2023-02-22T03:53:39;13.43;;;7.53;;
12469;SDS011;36499;46.484;13.832;2023-02-22T03:56:10;14.30;;;8.17;;
12469;SDS011;36499;46.484;13.832;2023-02-22T03:58:45;14.87;;;7.83;;
12469;SDS011;36499;46.484;13.832;2023-02-22T04:01:14;13.53;;;7.47;;
12469;SDS011;36499;46.484;13.832;2023-02-22T04:03:43;17.30;;;8.67;;
12469;SDS011;36499;46.484;13.832;2023-02-22T04:06:12;12.73;;;7.13;;
12469;SDS011;36499;46.484;13.832;2023-02-22T04:08:39;14.37;;;8.00;;
12469;SDS011;36499;46.484;13.832;2023-02-22T04:11:08;13.83;;;8.13;;
12469;SDS011;36499;46.484;13.832;2023-02-22T04:13:35;12.93;;;7.33;;
12469;SDS011;36499;46.484;13.832;2023-02-22T04:16:02;11.37;;;6.53;;
12469;SDS011;36499;46.484;13.832;2023-02-22T04:18:29;13.00;;;7.50;;
12469;SDS011;36499;46.484;13.832;2023-02-22T04:20:56;16.53;;;7.10;;
12469;SDS011;36499;46.484;13.832;2023-02-22T04:23:24;12.27;;;6.90;;
12469;SDS011;36499;46.484;13.832;2023-02-22T04:25:52;12.03;;;6.60;;
12469;SDS011;36499;46.484;13.832;2023-02-22T04:28:19;10.47;;;6.17;;
12469;SDS011;36499;46.484;13.832;2023-02-22T04:30:46;10.13;;;6.17;;
12469;SDS011;36499;46.484;13.832;2023-02-22T04:33:13;13.83;;;6.53;;
12469;SDS011;36499;46.484;13.832;2023-02-22T04:35:41;11.83;;;6.27;;
12469;SDS011;36499;46.484;13.832;2023-02-22T04:38:08;11.27;;;6.20;;
12469;SDS011;36499;46.484;13.832;2023-02-22T04:40:36;10.07;;;6.10;;
12469;SDS011;36499;46.484;13.832;2023-02-22T04:43:04;13.73;;;6.53;;
12469;SDS011;36499;46.484;13.832;2023-02-22T04:45:31;9.60;;;6.10;;
12469;SDS011;36499;46.484;13.832;2023-02-22T04:47:58;11.87;;;6.70;;
12469;SDS011;36499;46.484;13.832;2023-02-22T04:50:25;9.97;;;6.20;;
12469;SDS011;36499;46.484;13.832;2023-02-22T04:52:52;9.80;;;5.60;;
12469;SDS011;36499;46.484;13.832;2023-02-22T04:55:20;8.67;;;4.50;;
12469;SDS011;36499;46.484;13.832;2023-02-22T04:57:48;11.13;;;5.90;;
12469;SDS011;36499;46.484;13.832;2023-02-22T05:00:16;10.30;;;6.23;;
12469;SDS011;36499;46.484;13.832;2023-02-22T05:02:46;10.77;;;6.50;;
12469;SDS011;36499;46.484;13.832;2023-02-22T05:05:14;14.27;;;6.57;;
12469;SDS011;36499;46.484;13.832;2023-02-22T05:07:43;10.57;;;6.23;;
12469;SDS011;36499;46.484;13.832;2023-02-22T05:10:11;10.97;;;6.60;;
12469;SDS011;36499;46.484;13.832;2023-02-22T05:12:38;9.07;;;5.67;;
12469;SDS011;36499;46.484;13.832;2023-02-22T05:15:07;10.70;;;6.13;;
12469;SDS011;36499;46.484;13.832;2023-02-22T05:17:35;10.00;;;5.17;;
12469;SDS011;36499;46.484;13.832;2023-02-22T05:20:03;10.10;;;5.60;;
12469;SDS011;36499;46.484;13.832;2023-02-22T05:22:32;9.03;;;5.53;;
12469;SDS011;36499;46.484;13.832;2023-02-22T05:25:00;10.90;;;5.40;;
12469;SDS011;36499;46.484;13.832;2023-02-22T05:27:27;9.43;;;6.30;;
12469;SDS011;36499;46.484;13.832;2023-02-22T05:29:54;7.50;;;4.90;;
12469;SDS011;36499;46.484;13.832;2023-02-22T05:32:23;10.87;;;6.23;;
12469;SDS011;36499;46.484;13.832;2023-02-22T05:34:50;11.77;;;5.93;;
12469;SDS011;36499;46.484;13.832;2023-02-22T05:37:17;11.13;;;6.27;;
12469;SDS011;36499;46.484;13.832;2023-02-22T05:39:44;10.40;;;6.07;;
12469;SDS011;36499;46.484;13.832;2023-02-22T05:42:11;12.20;;;6.17;;
12469;SDS011;36499;46.484;13.832;2023-02-22T05:44:38;9.87;;;6.33;;
12469;SDS011;36499;46.484;13.832;2023-02-22T05:47:05;11.17;;;5.60;;
12469;SDS011;36499;46.484;13.832;2023-02-22T05:49:34;9.87;;;5.80;;
12469;SDS011;36499;46.484;13.832;2023-02-22T05:52:01;12.53;;;5.77;;
12469;SDS011;36499;46.484;13.832;2023-02-22T05:54:28;8.67;;;5.50;;
12469;SDS011;36499;46.484;13.832;2023-02-22T05:56:55;8.87;;;5.43;;
12469;SDS011;36499;46.484;13.832;2023-02-22T05:59:22;8.37;;;5.07;;
12469;SDS011;36499;46.484;13.832;2023-02-22T06:01:49;10.03;;;4.83;;
12469;SDS011;36499;46.484;13.832;2023-02-22T06:04:16;9.73;;;5.50;;
12469;SDS011;36499;46.484;13.832;2023-02-22T06:06:45;6.60;;;4.17;;
12469;SDS011;36499;46.484;13.832;2023-02-22T06:09:12;7.30;;;4.30;;
12469;SDS011;36499;46.484;13.832;2023-02-22T06:11:39;8.30;;;5.07;;
12469;SDS011;36499;46.484;13.832;2023-02-22T06:14:06;7.43;;;4.90;;
12469;SDS011;36499;46.484;13.832;2023-02-22T06:16:33;7.73;;;5.17;;
12469;SDS011;36499;46.484;13.832;2023-02-22T06:19:00;9.30;;;5.13;;
12469;SDS011;36499;46.484;13.832;2023-02-22T06:21:28;8.07;;;4.53;;
12469;SDS011;36499;46.484;13.832;2023-02-22T06:23:56;10.50;;;5.40;;
12469;SDS011;36499;46.484;13.832;2023-02-22T06:26:23;8.03;;;4.83;;
12469;SDS011;36499;46.484;13.832;2023-02-22T06:28:50;8.50;;;4.83;;
12469;SDS011;36499;46.484;13.832;2023-02-22T06:31:17;8.37;;;4.60;;
12469;SDS011;36499;46.484;13.832;2023-02-22T06:33:44;5.10;;;4.00;;
12469;SDS011;36499;46.484;13.832;2023-02-22T06:36:11;6.30;;;4.03;;
12469;SDS011;36499;46.484;13.832;2023-02-22T06:38:38;5.97;;;4.10;;
12469;SDS011;36499;46.484;13.832;2023-02-22T06:41:07;10.33;;;5.60;;
12469;SDS011;36499;46.484;13.832;2023-02-22T06:43:34;9.60;;;6.47;;
12469;SDS011;36499;46.484;13.832;2023-02-22T06:46:01;8.37;;;4.90;;
12469;SDS011;36499;46.484;13.832;2023-02-22T06:48:28;6.23;;;4.33;;
12469;SDS011;36499;46.484;13.832;2023-02-22T06:50:55;5.53;;;3.87;;
12469;SDS011;36499;46.484;13.832;2023-02-22T06:53:23;5.40;;;3.10;;
12469;SDS011;36499;46.484;13.832;2023-02-22T06:55:51;4.13;;;2.80;;
12469;SDS011;36499;46.484;13.832;2023-02-22T06:58:21;5.57;;;3.60;;
12469;SDS011;36499;46.484;13.832;2023-02-22T07:00:48;7.20;;;4.47;;
12469;SDS011;36499;46.484;13.832;2023-02-22T07:03:15;6.20;;;3.57;;
12469;SDS011;36499;46.484;13.832;2023-02-22T07:05:42;6.90;;;4.00;;
12469;SDS011;36499;46.484;13.832;2023-02-22T07:08:09;6.40;;;3.77;;
12469;SDS011;36499;46.484;13.832;2023-02-22T07:10:38;5.27;;;3.63;;
12469;SDS011;36499;46.484;13.832;2023-02-22T07:13:06;6.43;;;3.87;;
12469;SDS011;36499;46.484;13.832;2023-02-22T07:15:35;9.03;;;3.70;;
12469;SDS011;36499;46.484;13.832;2023-02-22T07:18:02;7.40;;;3.10;;
12469;SDS011;36499;46.484;13.832;2023-02-22T07:20:30;4.13;;;3.13;;
12469;SDS011;36499;46.484;13.832;2023-02-22T07:22:57;6.87;;;3.53;;
12469;SDS011;36499;46.484;13.832;2023-02-22T07:25:25;5.47;;;3.23;;
12469;SDS011;36499;46.484;13.832;2023-02-22T07:27:52;4.60;;;2.83;;
12469;SDS011;36499;46.484;13.832;2023-02-22T07:30:20;5.37;;;3.20;;
12469;SDS011;36499;46.484;13.832;2023-02-22T07:32:51;7.83;;;3.40;;
12469;SDS011;36499;46.484;13.832;2023-02-22T07:35:20;2.77;;;2.00;;
12469;SDS011;36499;46.484;13.832;2023-02-22T07:37:50;4.53;;;1.97;;
12469;SDS011;36499;46.484;13.832;2023-02-22T07:40:18;4.20;;;2.60;;
12469;SDS011;36499;46.484;13.832;2023-02-22T07:42:50;4.40;;;3.13;;
12469;SDS011;36499;46.484;13.832;2023-02-22T07:45:22;5.13;;;2.73;;
12469;SDS011;36499;46.484;13.832;2023-02-22T07:47:52;3.40;;;2.60;;
12469;SDS011;36499;46.484;13.832;2023-02-22T07:50:21;3.07;;;2.00;;
12469;SDS011;36499;46.484;13.832;2023-02-22T07:52:50;2.77;;;2.10;;
12469;SDS011;36499;46.484;13.832;2023-02-22T07:55:20;3.97;;;2.43;;
12469;SDS011;36499;46.484;13.832;2023-02-22T07:57:50;4.43;;;1.90;;
12469;SDS011;36499;46.484;13.832;2023-02-22T08:00:22;1.63;;;1.40;;
12469;SDS011;36499;46.484;13.832;2023-02-22T08:02:52;2.30;;;1.50;;
12469;SDS011;36499;46.484;13.832;2023-02-22T08:05:21;6.60;;;2.67;;
12469;SDS011;36499;46.484;13.832;2023-02-22T08:07:50;3.73;;;2.30;;
12469;SDS011;36499;46.484;13.832;2023-02-22T08:10:18;3.27;;;2.50;;
12469;SDS011;36499;46.484;13.832;2023-02-22T08:12:48;3.10;;;2.30;;
12469;SDS011;36499;46.484;13.832;2023-02-22T08:15:17;1.50;;;1.13;;
12469;SDS011;36499;46.484;13.832;2023-02-22T08:17:49;2.47;;;1.27;;
12469;SDS011;36499;46.484;13.832;2023-02-22T08:20:18;3.33;;;1.40;;
12469;SDS011;36499;46.484;13.832;2023-02-22T08:22:46;3.07;;;2.10;;
12469;SDS011;36499;46.484;13.832;2023-02-22T08:25:14;2.47;;;1.53;;
12469;SDS011;36499;46.484;13.832;2023-02-22T08:27:44;3.50;;;1.70;;
12469;SDS011;36499;46.484;13.832;2023-02-22T08:30:12;2.10;;;1.67;;
12469;SDS011;36499;46.484;13.832;2023-02-22T08:32:43;1.73;;;1.50;;
12469;SDS011;36499;46.484;13.832;2023-02-22T08:35:11;2.13;;;1.40;;
12469;SDS011;36499;46.484;13.832;2023-02-22T08:37:41;4.40;;;1.40;;
12469;SDS011;36499;46.484;13.832;2023-02-22T08:40:10;2.37;;;1.37;;
12469;SDS011;36499;46.484;13.832;2023-02-22T08:42:41;1.73;;;1.57;;
12469;SDS011;36499;46.484;13.832;2023-02-22T08:45:08;2.70;;;1.50;;
12469;SDS011;36499;46.484;13.832;2023-02-22T08:47:37;3.00;;;1.33;;
12469;SDS011;36499;46.484;13.832;2023-02-22T08:50:05;2.23;;;1.23;;
12469;SDS011;36499;46.484;13.832;2023-02-22T08:52:34;1.77;;;1.30;;
12469;SDS011;36499;46.484;13.832;2023-02-22T08:55:02;2.73;;;1.23;;
12469;SDS011;36499;46.484;13.832;2023-02-22T08:57:30;1.53;;;1.10;;
12469;SDS011;36499;46.484;13.832;2023-02-22T08:59:57;2.80;;;1.33;;
12469;SDS011;36499;46.484;13.832;2023-02-22T09:02:24;1.50;;;1.20;;
12469;SDS011;36499;46.484;13.832;2023-02-22T09:04:51;2.13;;;1.40;;
12469;SDS011;36499;46.484;13.832;2023-02-22T09:07:18;3.37;;;1.40;;
12469;SDS011;36499;46.484;13.832;2023-02-22T09:09:45;2.17;;;1.20;;
12469;SDS011;36499;46.484;13.832;2023-02-22T09:12:14;2.97;;;1.23;;
12469;SDS011;36499;46.484;13.832;2023-02-22T09:14:41;1.53;;;1.33;;
12469;SDS011;36499;46.484;13.832;2023-02-22T09:17:08;1.83;;;1.57;;
12469;SDS011;36499;46.484;13.832;2023-02-22T09:19:35;1.83;;;1.20;;
12469;SDS011;36499;46.484;13.832;2023-02-22T09:22:02;4.83;;;1.77;;
12469;SDS011;36499;46.484;13.832;2023-02-22T09:24:29;1.80;;;1.70;;
12469;SDS011;36499;46.484;13.832;2023-02-22T09:26:56;3.20;;;2.10;;
12469;SDS011;36499;46.484;13.832;2023-02-22T09:29:25;2.23;;;1.80;;
12469;SDS011;36499;46.484;13.832;2023-02-22T09:31:53;3.93;;;2.17;;
12469;SDS011;36499;46.484;13.832;2023-02-22T09:34:22;3.37;;;2.03;;
12469;SDS011;36499;46.484;13.832;2023-02-22T09:36:53;2.70;;;2.00;;
12469;SDS011;36499;46.484;13.832;2023-02-22T09:39:22;3.57;;;1.97;;
12469;SDS011;36499;46.484;13.832;2023-02-22T09:41:50;2.03;;;1.80;;
12469;SDS011;36499;46.484;13.832;2023-02-22T09:44:31;4.90;;;2.37;;
12469;SDS011;36499;46.484;13.832;2023-02-22T09:47:09;2.60;;;2.23;;
12469;SDS011;36499;46.484;13.832;2023-02-22T09:49:43;2.13;;;1.83;;
12469;SDS011;36499;46.484;13.832;2023-02-22T09:52:24;2.90;;;2.07;;
12469;SDS011;36499;46.484;13.832;2023-02-22T09:55:01;3.70;;;2.07;;
12469;SDS011;36499;46.484;13.832;2023-02-22T09:57:36;4.23;;;2.43;;
12469;SDS011;36499;46.484;13.832;2023-02-22T10:00:13;3.93;;;2.10;;
12469;SDS011;36499;46.484;13.832;2023-02-22T10:02:46;3.23;;;2.40;;
12469;SDS011;36499;46.484;13.832;2023-02-22T10:05:25;4.40;;;2.57;;
12469;SDS011;36499;46.484;13.832;2023-02-22T10:08:02;4.00;;;2.50;;
12469;SDS011;36499;46.484;13.832;2023-02-22T10:10:37;3.83;;;2.60;;
12469;SDS011;36499;46.484;13.832;2023-02-22T10:13:11;7.50;;;3.67;;
12469;SDS011;36499;46.484;13.832;2023-02-22T10:15:59;12.13;;;7.33;;
12469;SDS011;36499;46.484;13.832;2023-02-22T10:18:44;6.33;;;4.13;;
12469;SDS011;36499;46.484;13.832;2023-02-22T10:21:45;8.83;;;4.80;;
12469;SDS011;36499;46.484;13.832;2023-02-22T10:24:53;9.53;;;4.40;;
12469;SDS011;36499;46.484;13.832;2023-02-22T10:27:27;6.50;;;4.47;;
12469;SDS011;36499;46.484;13.832;2023-02-22T10:30:00;7.47;;;5.27;;
12469;SDS011;36499;46.484;13.832;2023-02-22T10:32:42;6.90;;;4.60;;
12469;SDS011;36499;46.484;13.832;2023-02-22T10:35:15;7.70;;;4.67;;
12469;SDS011;36499;46.484;13.832;2023-02-22T10:37:47;5.83;;;3.70;;
12469;SDS011;36499;46.484;13.832;2023-02-22T10:40:21;5.03;;;3.27;;
12469;SDS011;36499;46.484;13.832;2023-02-22T10:42:56;6.80;;;3.97;;
12469;SDS011;36499;46.484;13.832;2023-02-22T10:45:28;9.30;;;4.03;;
12469;SDS011;36499;46.484;13.832;2023-02-22T10:48:00;5.77;;;3.53;;
12469;SDS011;36499;46.484;13.832;2023-02-22T10:50:36;17.33;;;11.07;;
12469;SDS011;36499;46.484;13.832;2023-02-22T10:53:07;11.23;;;6.33;;
12469;SDS011;36499;46.484;13.832;2023-02-22T10:55:35;7.83;;;5.00;;
12469;SDS011;36499;46.484;13.832;2023-02-22T10:58:41;21.00;;;11.10;;
12469;SDS011;36499;46.484;13.832;2023-02-22T11:01:20;7.67;;;5.37;;
12469;SDS011;36499;46.484;13.832;2023-02-22T11:03:57;7.20;;;4.80;;
12469;SDS011;36499;46.484;13.832;2023-02-22T11:06:29;7.33;;;5.90;;
12469;SDS011;36499;46.484;13.832;2023-02-22T11:09:05;12.73;;;7.07;;
12469;SDS011;36499;46.484;13.832;2023-02-22T11:11:37;7.93;;;5.63;;
12469;SDS011;36499;46.484;13.832;2023-02-22T11:14:07;10.30;;;6.83;;
12469;SDS011;36499;46.484;13.832;2023-02-22T11:16:37;14.93;;;9.67;;
12469;SDS011;36499;46.484;13.832;2023-02-22T11:19:15;13.00;;;8.40;;
12469;SDS011;36499;46.484;13.832;2023-02-22T11:21:47;10.80;;;7.60;;
12469;SDS011;36499;46.484;13.832;2023-02-22T11:24:17;12.50;;;7.70;;
12469;SDS011;36499;46.484;13.832;2023-02-22T11:26:50;12.70;;;8.33;;
12469;SDS011;36499;46.484;13.832;2023-02-22T11:29:24;17.03;;;9.97;;
12469;SDS011;36499;46.484;13.832;2023-02-22T11:31:56;16.53;;;10.53;;
12469;SDS011;36499;46.484;13.832;2023-02-22T11:34:28;15.90;;;9.90;;
12469;SDS011;36499;46.484;13.832;2023-02-22T11:40:04;21.37;;;13.83;;
12469;SDS011;36499;46.484;13.832;2023-02-22T11:42:41;19.83;;;13.03;;
12469;SDS011;36499;46.484;13.832;2023-02-22T11:45:10;18.57;;;12.20;;
12469;SDS011;36499;46.484;13.832;2023-02-22T11:47:45;23.60;;;14.77;;
12469;SDS011;36499;46.484;13.832;2023-02-22T11:50:24;23.63;;;14.00;;
12469;SDS011;36499;46.484;13.832;2023-02-22T11:53:02;19.37;;;12.37;;
12469;SDS011;36499;46.484;13.832;2023-02-22T11:55:50;18.63;;;12.30;;
12469;SDS011;36499;46.484;13.832;2023-02-22T11:58:41;17.57;;;12.73;;
12469;SDS011;36499;46.484;13.832;2023-02-22T12:01:15;24.37;;;15.20;;
12469;SDS011;36499;46.484;13.832;2023-02-22T12:04:13;17.47;;;12.57;;
12469;SDS011;36499;46.484;13.832;2023-02-22T12:10:24;20.30;;;12.97;;
12469;SDS011;36499;46.484;13.832;2023-02-22T12:13:16;26.30;;;17.80;;
12469;SDS011;36499;46.484;13.832;2023-02-22T12:16:00;22.90;;;16.20;;
12469;SDS011;36499;46.484;13.832;2023-02-22T12:18:40;21.70;;;14.53;;
12469;SDS011;36499;46.484;13.832;2023-02-22T12:21:23;17.93;;;12.90;;
12469;SDS011;36499;46.484;13.832;2023-02-22T12:23:56;22.07;;;13.83;;
12469;SDS011;36499;46.484;13.832;2023-02-22T12:26:29;21.73;;;14.73;;
12469;SDS011;36499;46.484;13.832;2023-02-22T12:29:02;26.50;;;19.47;;
12469;SDS011;36499;46.484;13.832;2023-02-22T12:31:40;26.43;;;17.73;;
12469;SDS011;36499;46.484;13.832;2023-02-22T12:34:15;22.23;;;14.47;;
12469;SDS011;36499;46.484;13.832;2023-02-22T12:36:59;20.20;;;11.80;;
12469;SDS011;36499;46.484;13.832;2023-02-22T12:39:44;20.17;;;12.03;;
12469;SDS011;36499;46.484;13.832;2023-02-22T12:42:21;22.17;;;12.90;;
12469;SDS011;36499;46.484;13.832;2023-02-22T12:44:59;22.33;;;12.37;;
12469;SDS011;36499;46.484;13.832;2023-02-22T12:47:34;17.07;;;12.17;;
12469;SDS011;36499;46.484;13.832;2023-02-22T12:50:12;18.27;;;11.97;;
12469;SDS011;36499;46.484;13.832;2023-02-22T12:52:49;20.97;;;12.90;;
12469;SDS011;36499;46.484;13.832;2023-02-22T12:55:24;20.20;;;12.10;;
12469;SDS011;36499;46.484;13.832;2023-02-22T12:58:05;16.70;;;11.27;;
12469;SDS011;36499;46.484;13.832;2023-02-22T13:00:47;17.87;;;11.53;;
12469;SDS011;36499;46.484;13.832;2023-02-22T13:03:26;18.40;;;11.47;;
12469;SDS011;36499;46.484;13.832;2023-02-22T13:06:10;19.03;;;11.33;;
12469;SDS011;36499;46.484;13.832;2023-02-22T13:08:54;18.37;;;12.17;;
12469;SDS011;36499;46.484;13.832;2023-02-22T13:11:42;16.30;;;11.30;;
12469;SDS011;36499;46.484;13.832;2023-02-22T13:14:26;17.57;;;11.23;;
12469;SDS011;36499;46.484;13.832;2023-02-22T13:17:12;19.23;;;12.43;;
12469;SDS011;36499;46.484;13.832;2023-02-22T13:19:51;20.40;;;12.80;;
12469;SDS011;36499;46.484;13.832;2023-02-22T13:22:28;18.77;;;11.33;;
12469;SDS011;36499;46.484;13.832;2023-02-22T13:25:02;17.77;;;11.87;;
12469;SDS011;36499;46.484;13.832;2023-02-22T13:27:40;21.47;;;11.43;;
12469;SDS011;36499;46.484;13.832;2023-02-22T13:30:15;30.27;;;14.57;;
12469;SDS011;36499;46.484;13.832;2023-02-22T13:36:04;23.57;;;13.70;;
12469;SDS011;36499;46.484;13.832;2023-02-22T13:39:03;24.07;;;13.73;;
12469;SDS011;36499;46.484;13.832;2023-02-22T13:42:04;20.33;;;13.43;;
12469;SDS011;36499;46.484;13.832;2023-02-22T13:48:18;16.37;;;11.23;;
12469;SDS011;36499;46.484;13.832;2023-02-22T13:51:12;14.77;;;10.37;;
12469;SDS011;36499;46.484;13.832;2023-02-22T13:53:56;20.50;;;13.83;;
12469;SDS011;36499;46.484;13.832;2023-02-22T13:56:29;16.97;;;10.57;;
12469;SDS011;36499;46.484;13.832;2023-02-22T13:58:57;16.47;;;9.93;;
12469;SDS011;36499;46.484;13.832;2023-02-22T14:01:42;19.83;;;10.50;;
12469;SDS011;36499;46.484;13.832;2023-02-22T14:04:18;16.43;;;11.17;;
12469;SDS011;36499;46.484;13.832;2023-02-22T14:13:13;18.73;;;10.17;;
12469;SDS011;36499;46.484;13.832;2023-02-22T14:18:49;14.23;;;8.43;;
12469;SDS011;36499;46.484;13.832;2023-02-22T14:21:30;14.67;;;8.80;;
12469;SDS011;36499;46.484;13.832;2023-02-22T14:24:05;11.33;;;7.83;;
12469;SDS011;36499;46.484;13.832;2023-02-22T14:26:37;9.20;;;6.67;;
12469;SDS011;36499;46.484;13.832;2023-02-22T14:29:15;8.50;;;5.40;;
12469;SDS011;36499;46.484;13.832;2023-02-22T14:32:00;9.80;;;6.70;;
12469;SDS011;36499;46.484;13.832;2023-02-22T14:34:40;11.20;;;7.77;;
12469;SDS011;36499;46.484;13.832;2023-02-22T14:37:17;12.13;;;7.20;;
12469;SDS011;36499;46.484;13.832;2023-02-22T14:39:50;10.07;;;6.80;;
12469;SDS011;36499;46.484;13.832;2023-02-22T14:42:27;5.20;;;4.10;;
12469;SDS011;36499;46.484;13.832;2023-02-22T14:45:02;4.83;;;3.40;;
12469;SDS011;36499;46.484;13.832;2023-02-22T14:47:44;4.83;;;2.60;;
12469;SDS011;36499;46.484;13.832;2023-02-22T14:50:27;4.83;;;3.17;;
12469;SDS011;36499;46.484;13.832;2023-02-22T14:53:11;4.93;;;3.23;;
12469;SDS011;36499;46.484;13.832;2023-02-22T14:55:51;4.63;;;3.07;;
12469;SDS011;36499;46.484;13.832;2023-02-22T14:58:28;3.30;;;2.50;;
12469;SDS011;36499;46.484;13.832;2023-02-22T15:01:14;2.70;;;2.17;;
12469;SDS011;36499;46.484;13.832;2023-02-22T15:03:49;3.00;;;2.00;;
12469;SDS011;36499;46.484;13.832;2023-02-22T15:06:24;2.43;;;2.00;;
12469;SDS011;36499;46.484;13.832;2023-02-22T15:09:06;4.20;;;2.63;;
12469;SDS011;36499;46.484;13.832;2023-02-22T15:11:40;2.97;;;2.20;;
12469;SDS011;36499;46.484;13.832;2023-02-22T15:14:13;6.07;;;2.40;;
12469;SDS011;36499;46.484;13.832;2023-02-22T15:16:45;3.07;;;2.07;;
12469;SDS011;36499;46.484;13.832;2023-02-22T15:19:18;2.20;;;1.90;;
12469;SDS011;36499;46.484;13.832;2023-02-22T15:21:52;3.17;;;2.20;;
12469;SDS011;36499;46.484;13.832;2023-02-22T15:24:23;4.83;;;2.40;;
12469;SDS011;36499;46.484;13.832;2023-02-22T15:26:53;3.00;;;2.27;;